createdAt,value
2022-08-16T00:01:24.443Z,23.50
2022-08-16T00:03:53.117Z,23.40
2022-08-16T00:06:21.421Z,23.40
2022-08-16T00:08:52.457Z,23.30
2022-08-16T00:11:20.987Z,23.40
2022-08-16T00:13:53.418Z,23.30
2022-08-16T00:17:06.638Z,23.30
2022-08-16T00:19:13.380Z,23.30
2022-08-16T00:21:42.586Z,23.30
2022-08-16T00:24:12.153Z,23.30
2022-08-16T00:26:45.070Z,23.20
2022-08-16T00:29:17.477Z,23.30
2022-08-16T00:31:59.786Z,23.10
2022-08-16T00:34:44.497Z,23.20
2022-08-16T00:37:20.389Z,23.20
2022-08-16T00:39:57.747Z,23.20
2022-08-16T00:42:30.422Z,23.30
2022-08-16T00:45:06.289Z,23.10
2022-08-16T00:47:37.952Z,23.10
2022-08-16T00:50:08.225Z,23.10
2022-08-16T00:52:46.011Z,23.10
2022-08-16T00:55:19.338Z,23.10
2022-08-16T00:57:59.639Z,23.10
2022-08-16T01:00:32.651Z,23.10
2022-08-16T01:03:04.975Z,23.10
2022-08-16T01:05:33.520Z,23.20
2022-08-16T01:08:02.550Z,23.20
2022-08-16T01:10:51.136Z,23.00
2022-08-16T01:13:22.720Z,23.00
2022-08-16T01:15:56.301Z,23.00
2022-08-16T01:18:39.998Z,23.00
2022-08-16T01:21:22.361Z,23.00
2022-08-16T01:24:52.091Z,23.00
2022-08-16T01:27:04.218Z,23.00
2022-08-16T01:29:57.932Z,23.00
2022-08-16T01:32:33.583Z,22.90
2022-08-16T01:35:05.328Z,22.90
2022-08-16T01:37:42.333Z,22.90
2022-08-16T01:40:13.762Z,22.90
2022-08-16T01:42:44.463Z,23.00
2022-08-16T01:45:19.723Z,22.90
2022-08-16T01:47:52.111Z,22.90
2022-08-16T01:51:05.048Z,22.90
2022-08-16T01:53:11.147Z,22.90
2022-08-16T01:55:42.818Z,22.90
2022-08-16T01:58:23.488Z,22.80
2022-08-16T02:00:51.369Z,22.90
2022-08-16T02:03:19.298Z,23.00
2022-08-16T02:05:52.504Z,22.90
2022-08-16T02:08:33.572Z,22.80
2022-08-16T02:11:04.750Z,22.90
2022-08-16T02:13:33.009Z,22.90
2022-08-16T02:16:01.191Z,22.90
2022-08-16T02:18:29.291Z,22.90
2022-08-16T02:20:57.160Z,22.80
2022-08-16T02:23:25.687Z,22.90
2022-08-16T02:25:59.507Z,22.80
2022-08-16T02:28:29.503Z,22.80
2022-08-16T02:31:00.450Z,22.80
2022-08-16T02:33:44.533Z,22.80
2022-08-16T02:36:47.914Z,22.90
2022-08-16T02:39:07.115Z,22.80
2022-08-16T02:41:39.468Z,22.80
2022-08-16T02:44:11.237Z,22.70
2022-08-16T02:46:50.756Z,22.60
2022-08-16T02:49:21.884Z,22.80
2022-08-16T02:52:00.038Z,22.70
2022-08-16T02:54:29.086Z,22.60
2022-08-16T02:56:56.935Z,22.70
2022-08-16T02:59:27.424Z,22.80
2022-08-16T03:02:10.281Z,22.60
2022-08-16T03:04:50.904Z,22.60
2022-08-16T03:07:27.727Z,22.60
2022-08-16T03:09:57.153Z,22.60
2022-08-16T03:12:30.353Z,22.60
2022-08-16T03:15:07.231Z,22.50
2022-08-16T03:17:36.598Z,22.50
2022-08-16T03:20:21.445Z,22.40
2022-08-16T03:23:01.848Z,22.40
2022-08-16T03:25:43.921Z,22.40
2022-08-16T03:28:12.669Z,22.40
2022-08-16T03:30:42.333Z,22.40
2022-08-16T03:33:10.183Z,22.40
2022-08-16T03:35:40.416Z,22.40
2022-08-16T03:38:34.359Z,22.40
2022-08-16T03:40:59.758Z,22.30
2022-08-16T03:43:51.543Z,22.40
2022-08-16T03:46:47.445Z,22.30
2022-08-16T03:49:11.762Z,22.30
2022-08-16T03:51:40.959Z,22.30
2022-08-16T03:54:12.330Z,22.30
2022-08-16T03:56:57.168Z,22.20
2022-08-16T03:59:25.964Z,22.20
2022-08-16T04:01:59.244Z,22.10
2022-08-16T04:04:33.391Z,22.20
2022-08-16T04:07:03.339Z,22.10
2022-08-16T04:09:35.172Z,22.10
2022-08-16T04:12:04.697Z,22.10
2022-08-16T04:14:46.605Z,22.10
2022-08-16T04:17:17.683Z,22.10
2022-08-16T04:19:46.630Z,22.10
2022-08-16T04:22:17.161Z,22.10
2022-08-16T04:24:54.854Z,22.00
2022-08-16T04:27:24.439Z,22.00
2022-08-16T04:30:03.281Z,22.00
2022-08-16T04:32:32.876Z,22.00
2022-08-16T04:35:07.597Z,22.00
2022-08-16T04:37:42.261Z,21.90
2022-08-16T04:40:20.579Z,21.90
2022-08-16T04:42:50.532Z,21.90
2022-08-16T04:45:19.584Z,21.90
2022-08-16T04:48:06.411Z,21.90
2022-08-16T04:50:34.262Z,21.90
2022-08-16T04:53:02.112Z,21.90
2022-08-16T04:55:38.403Z,21.90
2022-08-16T04:58:43.980Z,21.90
2022-08-16T05:00:55.812Z,21.90
2022-08-16T05:03:26.158Z,21.90
2022-08-16T05:05:59.184Z,21.90
2022-08-16T05:08:31.819Z,21.80
2022-08-16T05:11:05.219Z,21.80
2022-08-16T05:13:40.434Z,21.80
2022-08-16T05:16:11.885Z,21.80
2022-08-16T05:18:41.261Z,21.80
2022-08-16T05:21:11.279Z,21.80
2022-08-16T05:23:40.816Z,21.80
2022-08-16T05:26:20.114Z,21.80
2022-08-16T05:28:55.169Z,21.90
2022-08-16T05:31:24.168Z,21.80
2022-08-16T05:33:59.582Z,21.80
2022-08-16T05:36:34.347Z,21.80
2022-08-16T05:39:06.565Z,21.90
2022-08-16T05:41:45.201Z,21.90
2022-08-16T05:44:23.850Z,21.90
2022-08-16T05:46:54.668Z,21.90
2022-08-16T05:49:25.146Z,21.90
2022-08-16T05:51:55.062Z,21.90
2022-08-16T05:54:25.670Z,21.90
2022-08-16T05:56:55.803Z,21.90
2022-08-16T05:59:24.450Z,21.90
2022-08-16T06:01:55.771Z,21.90
2022-08-16T06:04:36.702Z,21.90
2022-08-16T06:07:09.097Z,21.90
2022-08-16T06:09:43.248Z,21.90
2022-08-16T06:12:27.004Z,22.00
2022-08-16T06:14:58.979Z,22.00
2022-08-16T06:17:42.465Z,22.00
2022-08-16T06:20:18.596Z,22.00
2022-08-16T06:22:58.812Z,22.00
2022-08-16T06:25:36.489Z,22.00
2022-08-16T06:28:10.269Z,22.00
2022-08-16T06:30:45.034Z,22.00
2022-08-16T06:33:22.674Z,22.00
2022-08-16T06:35:55.318Z,22.00
2022-08-16T06:38:33.351Z,22.10
2022-08-16T06:41:03.681Z,22.10
2022-08-16T06:43:31.968Z,22.10
2022-08-16T06:46:00.623Z,22.10
2022-08-16T06:48:32.686Z,22.10
2022-08-16T06:51:03.229Z,22.10
2022-08-16T06:53:35.707Z,22.10
2022-08-16T06:56:14.298Z,22.10
2022-08-16T06:58:51.005Z,22.10
2022-08-16T07:01:23.017Z,22.10
2022-08-16T07:04:11.785Z,22.20
2022-08-16T07:06:42.964Z,22.20
2022-08-16T07:09:11.894Z,22.30
2022-08-16T07:11:45.856Z,22.20
2022-08-16T07:14:24.165Z,22.20
2022-08-16T07:16:53.409Z,22.30
2022-08-16T07:19:21.226Z,22.20
2022-08-16T07:22:00.005Z,22.20
2022-08-16T07:24:30.122Z,22.20
2022-08-16T07:26:58.635Z,22.30
2022-08-16T07:29:26.449Z,22.30
2022-08-16T07:32:00.764Z,22.30
2022-08-16T07:34:35.418Z,22.40
2022-08-16T07:37:08.280Z,22.30
2022-08-16T07:39:43.313Z,22.40
2022-08-16T07:42:25.900Z,22.40
2022-08-16T07:44:57.935Z,22.40
2022-08-16T07:47:31.552Z,22.40
2022-08-16T07:49:59.845Z,22.40
2022-08-16T07:52:29.955Z,22.40
2022-08-16T07:54:58.009Z,22.40
2022-08-16T07:57:26.442Z,22.50
2022-08-16T07:59:57.170Z,22.50
2022-08-16T08:02:27.507Z,22.50
2022-08-16T08:04:56.277Z,22.40
2022-08-16T08:07:27.602Z,22.50
2022-08-16T08:09:58.169Z,22.50
2022-08-16T08:12:31.840Z,22.50
2022-08-16T08:15:05.867Z,22.50
2022-08-16T08:17:42.044Z,22.50
2022-08-16T08:20:26.184Z,22.60
2022-08-16T08:23:01.121Z,22.60
2022-08-16T08:25:53.887Z,22.60
2022-08-16T08:28:20.126Z,22.60
2022-08-16T08:30:51.543Z,22.60
2022-08-16T08:33:29.305Z,22.60
2022-08-16T08:36:00.782Z,22.60
2022-08-16T08:38:43.737Z,22.60
2022-08-16T08:41:15.466Z,22.60
2022-08-16T08:43:50.401Z,22.70
2022-08-16T08:46:21.335Z,22.70
2022-08-16T08:48:58.382Z,22.70
2022-08-16T08:51:35.663Z,22.70
2022-08-16T08:54:06.532Z,22.70
2022-08-16T08:56:37.476Z,22.80
2022-08-16T08:59:19.908Z,22.70
2022-08-16T09:01:57.175Z,22.80
2022-08-16T09:04:27.185Z,22.80
2022-08-16T09:06:55.396Z,22.90
2022-08-16T09:09:23.611Z,22.80
2022-08-16T09:11:53.665Z,22.80
2022-08-16T09:14:32.813Z,22.80
2022-08-16T09:17:14.037Z,22.80
2022-08-16T09:19:53.732Z,22.80
2022-08-16T09:22:23.741Z,22.80
2022-08-16T09:24:54.071Z,22.90
2022-08-16T09:27:57.219Z,22.90
2022-08-16T09:30:34.749Z,22.90
2022-08-16T09:33:11.884Z,22.90
2022-08-16T09:35:42.428Z,22.90
2022-08-16T09:38:31.269Z,22.90
2022-08-16T09:41:01.374Z,22.90
2022-08-16T09:44:00.102Z,22.90
2022-08-16T09:46:44.560Z,23.00
2022-08-16T09:49:08.467Z,23.00
2022-08-16T09:51:37.516Z,23.00
2022-08-16T09:54:09.835Z,23.00
2022-08-16T09:56:52.756Z,23.10
2022-08-16T09:59:25.270Z,23.10
2022-08-16T10:01:54.480Z,23.10
2022-08-16T10:04:31.698Z,23.20
2022-08-16T10:07:14.668Z,23.20
2022-08-16T10:09:53.981Z,23.20
2022-08-16T10:12:42.634Z,23.20
2022-08-16T10:15:15.351Z,23.30
2022-08-16T10:17:45.487Z,23.40
2022-08-16T10:20:28.931Z,23.40
2022-08-16T10:23:03.670Z,23.40
2022-08-16T10:27:20.843Z,23.40
2022-08-16T10:28:31.856Z,23.40
2022-08-16T10:31:03.344Z,23.40
2022-08-16T10:33:34.015Z,23.50
2022-08-16T10:36:04.882Z,23.50
2022-08-16T10:38:36.826Z,23.50
2022-08-16T10:41:07.083Z,23.50
2022-08-16T10:43:36.197Z,23.60
2022-08-16T10:46:39.396Z,23.60
2022-08-16T10:48:54.940Z,23.60
2022-08-16T10:51:33.650Z,23.60
2022-08-16T10:54:28.648Z,23.70
2022-08-16T10:56:58.308Z,23.70
2022-08-16T10:59:38.480Z,23.80
2022-08-16T11:03:37.433Z,23.80
2022-08-16T11:05:06.344Z,23.90
2022-08-16T11:07:43.802Z,23.90
2022-08-16T11:10:57.071Z,24.00
2022-08-16T11:15:57.583Z,24.00
2022-08-16T11:18:48.595Z,24.00
2022-08-16T11:21:29.533Z,24.00
2022-08-16T11:23:59.070Z,24.00
2022-08-16T11:26:28.646Z,24.00
2022-08-16T11:29:14.014Z,24.00
2022-08-16T11:31:45.859Z,24.00
2022-08-16T11:34:23.116Z,24.10
2022-08-16T11:36:59.377Z,24.10
2022-08-16T11:39:29.521Z,24.10
2022-08-16T11:41:57.773Z,24.10
2022-08-16T11:44:45.368Z,24.10
2022-08-16T11:47:14.112Z,24.20
2022-08-16T11:49:43.410Z,24.10
2022-08-16T11:52:11.273Z,24.10
2022-08-16T11:54:40.213Z,24.20
2022-08-16T11:57:08.953Z,24.20
2022-08-16T11:59:39.566Z,24.20
2022-08-16T12:02:32.143Z,24.30
2022-08-16T12:04:59.336Z,24.40
2022-08-16T12:07:29.231Z,24.40
2022-08-16T12:10:01.231Z,24.50
2022-08-16T12:12:29.210Z,24.50
2022-08-16T12:15:01.036Z,24.40
2022-08-16T12:17:31.954Z,24.50
2022-08-16T12:20:01.880Z,24.60
2022-08-16T12:22:36.564Z,24.70
2022-08-16T12:25:05.457Z,24.70
2022-08-16T12:27:33.532Z,24.70
2022-08-16T12:30:08.405Z,24.70
2022-08-16T12:32:53.282Z,24.80
2022-08-16T12:35:29.577Z,24.80
2022-08-16T12:37:59.433Z,24.90
2022-08-16T12:40:32.210Z,25.00
2022-08-16T12:43:03.267Z,25.00
2022-08-16T12:45:35.670Z,25.10
2022-08-16T12:48:33.930Z,25.10
2022-08-16T12:51:13.522Z,25.20
2022-08-16T12:53:47.392Z,25.20
2022-08-16T12:56:15.285Z,25.30
2022-08-16T12:58:49.468Z,25.40
2022-08-16T13:01:22.765Z,25.50
2022-08-16T13:04:08.247Z,25.60
2022-08-16T13:06:42.217Z,25.60
2022-08-16T13:09:20.564Z,25.70
2022-08-16T13:11:59.955Z,25.70
2022-08-16T13:14:33.523Z,25.80
2022-08-16T13:17:03.976Z,25.70
2022-08-16T13:20:03.397Z,25.80
2022-08-16T13:22:25.005Z,25.80
2022-08-16T13:24:54.399Z,25.80
2022-08-16T13:28:02.461Z,25.90
2022-08-16T13:30:35.602Z,25.90
2022-08-16T13:33:00.563Z,26.00
2022-08-16T13:35:34.394Z,25.90
2022-08-16T13:38:04.034Z,26.00
2022-08-16T13:40:34.345Z,26.00
2022-08-16T13:43:02.856Z,26.10
2022-08-16T13:45:45.184Z,26.10
2022-08-16T13:48:21.954Z,26.20
2022-08-16T13:50:53.839Z,26.20
2022-08-16T13:53:24.169Z,26.20
2022-08-16T13:55:57.617Z,26.30
2022-08-16T13:58:37.416Z,26.30
2022-08-16T14:01:16.249Z,26.40
2022-08-16T14:03:45.416Z,26.60
2022-08-16T14:06:14.862Z,26.90
2022-08-16T14:08:44.687Z,27.40
2022-08-16T14:11:27.722Z,28.00
2022-08-16T14:13:57.380Z,28.70
2022-08-16T14:16:33.765Z,29.30
2022-08-16T14:19:02.662Z,30.00
2022-08-16T14:21:34.805Z,30.60
2022-08-16T14:24:22.130Z,31.20
2022-08-16T14:26:50.741Z,31.70
2022-08-16T14:29:21.277Z,32.10
2022-08-16T14:31:53.887Z,32.40
2022-08-16T14:34:25.650Z,32.60
2022-08-16T14:36:53.970Z,32.80
2022-08-16T14:39:23.319Z,32.90
2022-08-16T14:41:53.780Z,33.10
2022-08-16T14:44:24.291Z,33.10
2022-08-16T14:46:54.183Z,33.40
2022-08-16T14:49:23.887Z,33.40
2022-08-16T14:51:52.121Z,33.60
2022-08-16T14:54:21.803Z,33.70
2022-08-16T14:56:54.954Z,33.90
2022-08-16T14:59:23.546Z,34.00
2022-08-16T15:01:58.740Z,33.90
2022-08-16T15:04:36.891Z,33.90
2022-08-16T15:07:10.916Z,33.90
2022-08-16T15:09:44.105Z,34.00
2022-08-16T15:12:30.925Z,34.10
2022-08-16T15:15:04.425Z,34.20
2022-08-16T15:17:40.511Z,34.20
2022-08-16T15:20:09.814Z,34.00
2022-08-16T15:22:40.397Z,34.00
2022-08-16T15:25:11.209Z,34.00
2022-08-16T15:27:42.158Z,34.10
2022-08-16T15:30:57.818Z,34.10
2022-08-16T15:33:03.158Z,34.10
2022-08-16T15:35:33.382Z,34.10
2022-08-16T15:38:09.080Z,34.10
2022-08-16T15:40:57.648Z,34.10
2022-08-16T15:43:39.549Z,34.10
2022-08-16T15:46:55.836Z,34.00
2022-08-16T15:49:12.437Z,33.90
2022-08-16T15:51:41.193Z,33.90
2022-08-16T15:54:21.473Z,33.80
2022-08-16T15:57:04.337Z,33.70
2022-08-16T15:59:48.656Z,33.60
2022-08-16T16:02:27.526Z,33.50
2022-08-16T16:04:56.093Z,33.30
2022-08-16T16:07:23.940Z,33.20
2022-08-16T16:09:53.334Z,32.90
2022-08-16T16:12:51.655Z,32.70
2022-08-16T16:15:11.864Z,32.60
2022-08-16T16:17:39.700Z,32.50
2022-08-16T16:20:14.633Z,32.40
2022-08-16T16:22:43.552Z,32.40
2022-08-16T16:25:11.687Z,32.30
2022-08-16T16:27:40.740Z,32.20
2022-08-16T16:30:38.141Z,32.10
2022-08-16T16:32:59.854Z,31.90
2022-08-16T16:35:30.813Z,31.70
2022-08-16T16:38:00.939Z,31.60
2022-08-16T16:40:32.605Z,31.50
2022-08-16T16:43:01.668Z,31.40
2022-08-16T16:45:33.323Z,31.20
2022-08-16T16:48:12.005Z,31.20
2022-08-16T16:50:44.562Z,31.00
2022-08-16T16:53:17.250Z,30.90
2022-08-16T16:55:47.750Z,30.80
2022-08-16T16:58:38.104Z,30.70
2022-08-16T17:01:07.787Z,30.60
2022-08-16T17:03:38.579Z,30.50
2022-08-16T17:06:09.109Z,30.40
2022-08-16T17:08:40.832Z,30.30
2022-08-16T17:11:09.561Z,30.30
2022-08-16T17:13:38.091Z,30.10
2022-08-16T17:16:08.595Z,30.10
2022-08-16T17:19:15.078Z,30.00
2022-08-16T17:21:36.945Z,29.90
2022-08-16T17:24:18.406Z,29.90
2022-08-16T17:26:49.052Z,29.90
2022-08-16T17:29:17.030Z,29.80
2022-08-16T17:31:50.321Z,29.70
2022-08-16T17:34:30.259Z,29.60
2022-08-16T17:37:00.592Z,29.60
2022-08-16T17:39:33.158Z,29.50
2022-08-16T17:42:02.458Z,29.40
2022-08-16T17:44:30.328Z,29.30
2022-08-16T17:46:59.475Z,29.30
2022-08-16T17:49:27.310Z,29.20
2022-08-16T17:51:55.125Z,29.10
2022-08-16T17:54:30.023Z,29.00
2022-08-16T17:57:00.488Z,29.00
2022-08-16T17:59:29.836Z,28.90
2022-08-16T18:01:59.169Z,28.80
2022-08-16T18:04:48.880Z,28.70
2022-08-16T18:07:15.506Z,28.60
2022-08-16T18:09:43.372Z,28.40
2022-08-16T18:12:44.205Z,28.30
2022-08-16T18:15:08.116Z,28.20
2022-08-16T18:17:37.843Z,28.10
2022-08-16T18:20:06.889Z,28.00
2022-08-16T18:22:34.843Z,27.90
2022-08-16T18:25:02.742Z,27.80
2022-08-16T18:27:32.615Z,27.80
2022-08-16T18:30:00.736Z,27.70
2022-08-16T18:32:28.577Z,27.60
2022-08-16T18:34:58.245Z,27.50
2022-08-16T18:37:26.044Z,27.40
2022-08-16T18:39:54.022Z,27.40
2022-08-16T18:42:24.444Z,27.30
2022-08-16T18:44:52.267Z,27.20
2022-08-16T18:47:20.141Z,27.20
2022-08-16T18:49:47.950Z,27.10
2022-08-16T18:52:25.010Z,27.10
2022-08-16T18:55:03.056Z,27.00
2022-08-16T18:57:41.417Z,26.90
2022-08-16T19:00:12.369Z,26.90
2022-08-16T19:02:56.098Z,26.80
2022-08-16T19:05:29.126Z,26.80
2022-08-16T19:07:58.575Z,26.70
2022-08-16T19:10:26.539Z,26.70
2022-08-16T19:12:54.512Z,26.60
2022-08-16T19:15:26.134Z,26.50
2022-08-16T19:17:54.378Z,26.40
2022-08-16T19:20:25.133Z,26.40
2022-08-16T19:23:10.099Z,26.40
2022-08-16T19:25:46.756Z,26.30
2022-08-16T19:28:46.628Z,26.30
2022-08-16T19:31:06.211Z,26.30
2022-08-16T19:33:34.130Z,26.30
2022-08-16T19:36:02.048Z,26.20
2022-08-16T19:38:30.202Z,26.20
2022-08-16T19:40:59.338Z,26.10
2022-08-16T19:43:27.128Z,26.10
2022-08-16T19:45:55.226Z,26.00
2022-08-16T19:48:23.440Z,26.00
2022-08-16T19:50:51.243Z,26.00
2022-08-16T19:53:19.638Z,25.90
2022-08-16T19:55:48.441Z,25.90
2022-08-16T19:58:17.865Z,25.80
2022-08-16T20:00:47.952Z,25.90
2022-08-16T20:03:22.347Z,25.80
2022-08-16T20:05:51.776Z,25.80
2022-08-16T20:08:20.026Z,25.80
2022-08-16T20:10:50.470Z,25.70
2022-08-16T20:13:22.657Z,25.70
2022-08-16T20:15:51.776Z,25.60
2022-08-16T20:18:24.444Z,25.60
2022-08-16T20:20:53.317Z,25.60
2022-08-16T20:23:24.904Z,25.50
2022-08-16T20:25:55.461Z,25.50
2022-08-16T20:28:39.429Z,25.40
2022-08-16T20:31:12.964Z,25.50
2022-08-16T20:33:41.072Z,25.40
2022-08-16T20:36:09.499Z,25.40
2022-08-16T20:38:46.689Z,25.40
2022-08-16T20:41:14.721Z,25.30
2022-08-16T20:43:44.085Z,25.30
2022-08-16T20:46:13.605Z,25.30
2022-08-16T20:48:41.421Z,25.30
2022-08-16T20:51:10.646Z,25.20
2022-08-16T20:53:38.818Z,25.20
2022-08-16T20:56:07.606Z,25.20
2022-08-16T20:58:35.462Z,25.10
2022-08-16T21:01:05.900Z,25.00
2022-08-16T21:03:33.905Z,25.00
2022-08-16T21:06:02.925Z,25.00
2022-08-16T21:08:53.109Z,24.90
2022-08-16T21:11:21.488Z,24.90
2022-08-16T21:13:49.383Z,24.90
2022-08-16T21:16:19.450Z,24.80
2022-08-16T21:18:47.384Z,24.80
2022-08-16T21:21:15.480Z,24.70
2022-08-16T21:23:43.377Z,24.70
2022-08-16T21:26:11.585Z,24.70
2022-08-16T21:28:43.346Z,24.60
2022-08-16T21:31:12.552Z,24.70
2022-08-16T21:33:42.518Z,24.60
2022-08-16T21:36:11.216Z,24.60
2022-08-16T21:38:39.111Z,24.60
2022-08-16T21:41:10.143Z,24.60
2022-08-16T21:43:38.185Z,24.60
2022-08-16T21:46:07.986Z,24.50
2022-08-16T21:48:40.683Z,24.50
2022-08-16T21:51:12.679Z,24.50
2022-08-16T21:53:41.803Z,24.50
2022-08-16T21:56:12.633Z,24.40
2022-08-16T21:58:44.793Z,24.40
2022-08-16T22:01:12.639Z,24.40
2022-08-16T22:03:40.548Z,24.40
2022-08-16T22:06:14.218Z,24.30
2022-08-16T22:08:50.376Z,24.30
2022-08-16T22:11:20.163Z,24.20
2022-08-16T22:13:57.953Z,24.20
2022-08-16T22:16:27.716Z,24.20
2022-08-16T22:18:55.574Z,24.10
2022-08-16T22:21:24.848Z,24.10
2022-08-16T22:23:57.798Z,24.00
2022-08-16T22:26:30.642Z,24.00
2022-08-16T22:29:00.695Z,24.00
2022-08-16T22:31:29.085Z,23.90
2022-08-16T22:33:57.242Z,23.90
2022-08-16T22:36:28.255Z,23.90
2022-08-16T22:38:58.301Z,23.90
2022-08-16T22:41:27.513Z,23.80
2022-08-16T22:43:55.554Z,23.90
2022-08-16T22:46:23.446Z,23.80
2022-08-16T22:48:51.663Z,23.80
2022-08-16T22:51:19.932Z,23.80
2022-08-16T22:53:49.239Z,23.80
2022-08-16T22:56:17.880Z,23.80
2022-08-16T22:58:45.746Z,23.80
2022-08-16T23:01:14.286Z,23.70
2022-08-16T23:03:42.732Z,23.70
2022-08-16T23:06:12.248Z,23.70
2022-08-16T23:08:41.748Z,23.60
2022-08-16T23:11:13.902Z,23.60
2022-08-16T23:13:50.110Z,23.60
2022-08-16T23:16:29.198Z,23.50
2022-08-16T23:19:02.506Z,23.50
2022-08-16T23:21:30.363Z,23.50
2022-08-16T23:23:58.324Z,23.50
2022-08-16T23:26:45.090Z,23.50
2022-08-16T23:29:24.912Z,23.40
2022-08-16T23:32:09.176Z,23.40
2022-08-16T23:34:37.064Z,23.40
2022-08-16T23:37:06.484Z,23.40
2022-08-16T23:39:35.794Z,23.30
2022-08-16T23:42:12.556Z,23.30
2022-08-16T23:44:56.254Z,23.30
2022-08-16T23:47:26.615Z,23.30
2022-08-16T23:50:02.667Z,23.30
2022-08-16T23:52:53.709Z,23.30
2022-08-16T23:55:19.703Z,23.30
2022-08-16T23:57:49.569Z,23.20
